Manawa, WI (54949)

6:18 PM CDT on September 02, 2015 (GMT -0500)
W9SBU | | Change Station
CLOSE
Current Station
Personal Weather Station
Location: Weyauwega, WI
Elevation: 797 ft
Nearby Weather Stations

Elev 797 ft 44.32 °N, 88.93 °W | Updated 4 minutes ago

Clear
Clear
83.8 °F
Feels Like 86 °F
N
3.8
Wind Variable Wind from East
Gusts 6.9 mph

Today
High -- | Low -- °F
--% Chance of Precip.
Yesterday
High -- | Low -- °F
Precip. -- in
6:19 AM 7:30 PM
Waning Gibbous, 76% visible
Pressure 29.88 in
Visibility 10.0 miles
Clouds Clear
Heat Index 86 °F
Dew Point 66 °F
Humidity 55%
Rainfall 0.02 in
Snow Depth Not available.
UV 1 out of 12
Pollen 10.00 out of 12
Air Quality Not available.
Flu Activity Not available.
METAR KPCZ 022255Z AUTO 17008KT 10SM CLR 30/20 A2988 RMK AO2 T03000198
Pressure 29.88 in
Visibility 10.0 miles
Clouds Clear
Heat Index 86 °F
Dew Point 66 °F
Humidity 55%
Rainfall 0.02 in
Snow Depth Not available.
UV 1 out of 12
Pollen 10.00 out of 12
Air Quality Not available.
Flu Activity Not available.
METAR KPCZ 022255Z AUTO 17008KT 10SM CLR 30/20 A2988 RMK AO2 T03000198

10-Day Weather Forecast

×

Almanac

Astronomy

Sep. 02, 2015 Rise Set
Actual Time
Civil Twilight
Nautical Twilight
Astronomical Twilight
Moon
Length of Visible Light
Length of Day
Tomorrow will be .
, % of the Moon is Illuminated

Today's Extremes

State Highs State Lows

Community

WunderPhotos

Upload Photos

1,851,823 photos uploaded!

WunderBlogs® & News

Nearby

Air Quality

  Air Quality AQ Index Pollutant
Not available.

Snow Depth

Station Depth Elevation

Earthquake Activity

City Distance Mag. Time & Date
Minimum magnitude displayed is 2.5.

Coastal Water Temperatures

Place Temperature

Stations

Nearby Weather Stations

Station Location Temp. Windchill Dew Point Humidity Wind Precip. Elev Updated Type